Aeroporto :
LOGIN :

Iscrizione | Disclaimer

   EN    FR    IT 

 










Sommario :    VFR   VFR Marginale   IFR   IFR Intensivo   IFR Molto Intensivo
Visibilità : 
Base nubi : 
>= 8 km
>= 3000ft
5 / 8 km
1000 / 3000 ft
1500m / 5 km
500 / 1000 ft
800 / 1500m
200 / 500 ft
< 800m
< 200 ft
Simboli :   Temporali  Nebbia  Neve Forte  Precipitazioni Forti  Vento > 20 kt
SIGMETs :   Varie  Temporali  Ghiacco  Turbolenza  Onda orograficha  Ceneri Vulcaniche






- Altitudine del aeroporto : 390 ft
- Codice IATA : NQY


EGHQ - Newquay

ULTIMO METAR :
  • 190250Z AUTO 29015KT 9999 NCD 07/03 Q1023

METARs OBSOLETI :
  • 190220Z AUTO 29017KT 9999 NCD 07/03 Q1023
  • 190150Z AUTO 29018KT 9999 NCD 07/02 Q1023
  • 190120Z AUTO 29019KT 9999 SCT023/// 07/02 Q1023
  • 190050Z AUTO 29018KT 9999 FEW026/// 07/03 Q1023
  • 190020Z AUTO 29020KT 9999 FEW027/// 07/02 Q1023

TAF TAF EGHQ
Valido dal 19 a 03 ore il 19 a 12 ore UTC


190203Z 1903/1912 29018KT 9999 FEW010
BECMG 1903/1906 27008KT
TEMPO 1904/1910 8000 -RA BKN014
PROB30
TEMPO 1904/1910 RA BKN008
TEMPO 1910/1912 22015G25KT 8000 -RA BKN014



MetMap, La meteo Aeronautica in un colpo d'occhio ! - Copyright ORBIFLY Dicembre 2007 - Disclaimer

ORBIFLY MET'MAP TEAM :

Programmazione e sviluppo : Alexandra Zaïnal
Concezione : Baudouin d'Aumeries
Aiuto per la programmazione : Marc-Olivier Méhu
Supporto tecnico e logistico : Manuel Goepfert
Aiuto per la traduzione : Arnaldo La Scala

Contatto : metmap@orbifly.com




FONTI E CREDITI :

   NOAA